»·PEaware :: N982CA KVNY-KLAS

N982CA :: KVNY-KLAS

FLIGHT INFORMATION

Flight Status: Arrived
Operator: Privately registered:
United States
More flights under this callsign
Pilot: David C. (25479)
Aircraft: Cessna 525C Citation CJ4
(C25C)
More flights by this aircraft type
Origin: KVNY Van Nuys
United States
Destination: KLAS Harry Reid Intl
United States
More flights between these airports :: More routes between these airports
Route: HARYS4 MISEN RNDRZ1
File this flight plan on PilotEdge
Remarks:
Altitude:
(Current/Filed)
31,000ft
Speed:
(Current/Filed)
175kts
Departed: 25-Jun-21 07:38 PM
Arrived: 25-Jun-21 08:26 PM
Distance/Time
Traveled:
198nm/0:48
Distance/Time
To Go:
Arrived

Flight Plot

Page will automatically refresh every two minutes.

Flight plan parsing failed; only flown route is shown


Map Options




Map Legend


Flown Route
Filed Route
Departure Airport
Arrival Airport
Navaid (VOR, NDB)
Fix

Horizontal Profiles

Position Reports

Time Latitude Longitude Heading Altitude Ground
Speed
25-Jun-21 19:24 34.202962 -118.491564 0 739ft 0kts
25-Jun-21 19:25 34.202962 -118.491564 0 739ft 0kts
25-Jun-21 19:26 34.202962 -118.491564 0 739ft 0kts
25-Jun-21 19:27 34.202962 -118.491564 0 739ft 0kts
25-Jun-21 19:28 34.202962 -118.491564 0 739ft 0kts
25-Jun-21 19:29 34.202962 -118.491564 0 739ft 0kts
25-Jun-21 19:30 34.203963 -118.491135 11 739ft 10kts
25-Jun-21 19:31 34.207880 -118.491447 356 739ft 14kts
25-Jun-21 19:32 34.212030 -118.491863 355 739ft 15kts
25-Jun-21 19:33 34.216264 -118.492220 356 739ft 15kts
25-Jun-21 19:34 34.218976 -118.492234 104 739ft 0kts
25-Jun-21 19:35 34.218976 -118.492234 104 739ft 0kts
25-Jun-21 19:36 34.218976 -118.492234 104 739ft 0kts
25-Jun-21 19:37 34.215107 -118.490893 176 739ft 64kts
25-Jun-21 19:38 34.180528 -118.488325 176 1430ft 167kts
25-Jun-21 19:39 34.153284 -118.451540 68 3564ft 196kts
25-Jun-21 19:40 34.202457 -118.431856 2 5909ft 196kts
25-Jun-21 19:41 34.257226 -118.431728 345 8174ft 198kts
25-Jun-21 19:42 34.311544 -118.425765 29 10264ft 208kts
25-Jun-21 19:43 34.367055 -118.386502 28 10909ft 276kts
25-Jun-21 19:44 34.433279 -118.341529 27 12890ft 262kts
25-Jun-21 19:45 34.501042 -118.295813 39 13047ft 307kts
25-Jun-21 19:46 34.569679 -118.225519 37 13053ft 337kts
25-Jun-21 19:47 34.643938 -118.151539 38 13058ft 353kts
25-Jun-21 19:48 34.680019 -118.042278 79 13058ft 359kts
25-Jun-21 19:49 34.695712 -117.923386 86 13049ft 356kts
25-Jun-21 19:50 34.701841 -117.803962 84 13044ft 353kts
25-Jun-21 19:51 34.707617 -117.684529 87 12954ft 353kts
25-Jun-21 19:52 34.711564 -117.573096 85 14834ft 300kts
25-Jun-21 19:53 34.721305 -117.476732 66 17157ft 274kts
25-Jun-21 19:54 34.745062 -117.394110 64 19462ft 243kts
25-Jun-21 19:55 34.768361 -117.306350 65 21888ft 301kts
25-Jun-21 19:56 34.796351 -117.200813 66 24442ft 350kts
25-Jun-21 19:57 34.829596 -117.073602 67 24930ft 445kts
25-Jun-21 19:58 34.868752 -116.924892 67 24967ft 457kts
25-Jun-21 19:59 34.906712 -116.779334 68 24950ft 446kts
25-Jun-21 20:00 34.963034 -116.651005 46 24951ft 424kts
25-Jun-21 20:01 35.030219 -116.532300 48 24951ft 422kts
25-Jun-21 20:02 35.096376 -116.414936 48 24989ft 420kts
25-Jun-21 20:03 35.162440 -116.297914 48 24998ft 418kts
25-Jun-21 20:05 35.229513 -116.181848 39 24981ft 408kts
25-Jun-21 20:06 35.308674 -116.086754 36 23704ft 390kts
25-Jun-21 20:07 35.384361 -116.004285 37 17553ft 336kts
25-Jun-21 20:08 35.446169 -115.925174 52 13605ft 311kts
25-Jun-21 20:09 35.503585 -115.838363 48 13474ft 339kts
25-Jun-21 20:10 35.569300 -115.751506 47 13508ft 353kts
25-Jun-21 20:11 35.634296 -115.665712 47 12879ft 348kts
25-Jun-21 20:12 35.705065 -115.581295 43 12880ft 361kts
25-Jun-21 20:13 35.777399 -115.497070 43 12875ft 354kts
25-Jun-21 20:14 35.849174 -115.427548 28 12479ft 302kts
25-Jun-21 20:15 35.915434 -115.390854 22 11505ft 263kts
25-Jun-21 20:16 35.982684 -115.356262 22 10998ft 277kts
25-Jun-21 20:17 36.018514 -115.295236 85 8933ft 213kts
25-Jun-21 20:18 36.009484 -115.228401 93 8973ft 200kts
25-Jun-21 20:19 36.007910 -115.161948 91 7981ft 189kts
25-Jun-21 20:20 36.007528 -115.092787 81 7837ft 193kts
25-Jun-21 20:21 36.040513 -115.068621 336 5930ft 158kts
25-Jun-21 20:22 36.083553 -115.081405 2 4710ft 165kts
25-Jun-21 20:23 36.128806 -115.089244 330 4506ft 168kts
25-Jun-21 20:24 36.145235 -115.132291 207 3741ft 144kts
25-Jun-21 20:25 36.104450 -115.153745 204 2415ft 156kts
25-Jun-21 20:26 36.084972 -115.165075 219 2183ft 2kts
25-Jun-21 20:27 36.082748 -115.168079 250 2181ft 12kts
25-Jun-21 20:28 36.081437 -115.171210 267 2181ft 12kts
25-Jun-21 20:29 36.080879 -115.171068 87 2181ft 0kts
25-Jun-21 20:29 36.080879 -115.171068 87 2181ft 0kts

Navigation Log

Ident Type
Flight plan parsing failed, navigation log unavailable